createdAt,value
2023-02-26T00:01:28.510Z,99978.44
2023-02-26T00:03:57.865Z,99978.44
2023-02-26T00:06:26.856Z,99975.78
2023-02-26T00:08:55.209Z,99974.22
2023-02-26T00:11:23.216Z,99974.63
2023-02-26T00:13:51.150Z,99979.25
2023-02-26T00:16:24.584Z,99970.03
2023-02-26T00:18:51.765Z,99975.34
2023-02-26T00:21:20.992Z,99966.34
2023-02-26T00:23:48.232Z,99966.63
2023-02-26T00:26:15.486Z,99967.34
2023-02-26T00:28:42.838Z,99962.03
2023-02-26T00:31:10.554Z,99961.28
2023-02-26T00:33:38.113Z,99959.88
2023-02-26T00:36:22.874Z,99961.56
2023-02-26T00:38:56.013Z,99964.63
2023-02-26T00:41:23.193Z,99958.97
2023-02-26T00:43:50.308Z,99958.97
2023-02-26T00:46:23.827Z,99949.16
2023-02-26T00:48:50.917Z,99952.22
2023-02-26T00:51:41.750Z,99952.22
2023-02-26T00:54:18.016Z,99947.13
2023-02-26T00:56:44.939Z,99951.88
2023-02-26T00:59:11.897Z,99951.03
2023-02-26T01:01:38.994Z,99953.13
2023-02-26T01:04:06.760Z,99949.72
2023-02-26T01:06:35.571Z,99945.41
2023-02-26T01:09:13.333Z,99950.72
2023-02-26T01:11:40.461Z,99945.53
2023-02-26T01:14:07.870Z,99942.84
2023-02-26T01:16:50.911Z,99942.00
2023-02-26T01:19:49.891Z,99938.50
2023-02-26T01:22:25.729Z,99937.78
2023-02-26T01:25:01.785Z,99934.97
2023-02-26T01:27:28.904Z,99939.47
2023-02-26T01:29:56.113Z,99933.44
2023-02-26T01:32:23.138Z,99930.03
2023-02-26T01:34:55.778Z,99936.09
2023-02-26T01:37:34.663Z,99927.38
2023-02-26T01:40:39.233Z,99930.16
2023-02-26T01:43:13.227Z,99928.63
2023-02-26T01:45:55.392Z,99927.66
2023-02-26T01:48:37.449Z,99924.00
2023-02-26T01:51:05.672Z,99922.31
2023-02-26T01:53:32.650Z,99925.94
2023-02-26T01:56:18.432Z,99926.53
2023-02-26T01:58:49.470Z,99923.00
2023-02-26T02:01:16.401Z,99919.66
2023-02-26T02:03:43.825Z,99914.03
2023-02-26T02:06:17.956Z,99921.81
2023-02-26T02:08:45.876Z,99907.47
2023-02-26T02:11:14.827Z,99910.41
2023-02-26T02:13:57.122Z,99909.44
2023-02-26T02:16:45.590Z,99904.34
2023-02-26T02:19:38.119Z,99904.50
2023-02-26T02:22:32.622Z,99906.03
2023-02-26T02:25:25.322Z,99908.03
2023-02-26T02:27:59.305Z,99893.97
2023-02-26T02:30:58.461Z,99895.88
2023-02-26T02:33:36.896Z,99886.06
2023-02-26T02:36:13.749Z,99893.97
2023-02-26T02:38:58.174Z,99891.31
2023-02-26T02:41:32.713Z,99889.56
2023-02-26T02:44:07.435Z,99888.88
2023-02-26T02:46:43.566Z,99883.53
2023-02-26T02:49:17.032Z,99886.22
2023-02-26T02:52:01.927Z,99877.38
2023-02-26T02:54:44.750Z,99873.84
2023-02-26T02:57:20.114Z,99878.22
2023-02-26T02:59:51.552Z,99880.88
2023-02-26T03:02:35.952Z,99878.22
2023-02-26T03:05:05.573Z,99881.84
2023-02-26T03:07:36.979Z,99886.28
2023-02-26T03:10:04.172Z,99876.56
2023-02-26T03:12:34.023Z,99885.09
2023-02-26T03:15:02.661Z,99882.81
2023-02-26T03:17:48.088Z,99882.00
2023-02-26T03:21:05.582Z,99884.66
2023-02-26T03:23:46.856Z,99880.53
2023-02-26T03:26:25.476Z,99878.16
2023-02-26T03:28:59.366Z,99875.47
2023-02-26T03:31:59.637Z,99877.19
2023-02-26T03:34:43.456Z,99875.47
2023-02-26T03:37:24.465Z,99876.44
2023-02-26T03:39:56.437Z,99866.75
2023-02-26T03:42:33.266Z,99876.84
2023-02-26T03:45:22.827Z,99869.97
2023-02-26T03:47:54.185Z,99871.91
2023-02-26T03:50:34.394Z,99873.72
2023-02-26T03:53:44.455Z,99880.16
2023-02-26T03:56:20.623Z,99876.75
2023-02-26T03:59:08.784Z,99878.72
2023-02-26T04:02:02.667Z,99879.22
2023-02-26T04:04:48.957Z,99886.25
2023-02-26T04:07:18.929Z,99883.97
2023-02-26T04:09:48.707Z,99874.69
2023-02-26T04:12:16.270Z,99874.06
2023-02-26T04:14:47.426Z,99878.31
2023-02-26T04:17:14.523Z,99874.91
2023-02-26T04:19:41.425Z,99872.25
2023-02-26T04:22:08.572Z,99876.38
2023-02-26T04:24:36.740Z,99868.38
2023-02-26T04:27:04.082Z,99871.16
2023-02-26T04:29:32.389Z,99867.91
2023-02-26T04:31:59.642Z,99867.31
2023-02-26T04:34:26.884Z,99875.91
2023-02-26T04:36:54.130Z,99870.31
2023-02-26T04:39:21.394Z,99866.94
2023-02-26T04:41:49.011Z,99866.06
2023-02-26T04:44:16.052Z,99866.94
2023-02-26T04:46:45.400Z,99865.97
2023-02-26T04:49:12.926Z,99867.91
2023-02-26T04:51:44.200Z,99866.06
2023-02-26T04:54:16.030Z,99866.94
2023-02-26T04:56:43.055Z,99870.44
2023-02-26T04:59:09.965Z,99866.81
2023-02-26T05:01:37.103Z,99864.88
2023-02-26T05:04:07.854Z,99858.44
2023-02-26T05:06:35.405Z,99855.31
2023-02-26T05:09:02.285Z,99851.41
2023-02-26T05:11:30.668Z,99855.88
2023-02-26T05:13:57.708Z,99847.19
2023-02-26T05:16:24.920Z,99848.91
2023-02-26T05:18:52.168Z,99853.38
2023-02-26T05:21:19.770Z,99849.75
2023-02-26T05:23:46.847Z,99851.41
2023-02-26T05:26:13.751Z,99852.25
2023-02-26T05:28:41.445Z,99855.66
2023-02-26T05:31:08.785Z,99852.13
2023-02-26T05:33:35.776Z,99849.75
2023-02-26T05:36:02.797Z,99851.69
2023-02-26T05:38:29.750Z,99857.84
2023-02-26T05:40:58.321Z,99848.06
2023-02-26T05:43:26.465Z,99851.09
2023-02-26T05:45:54.234Z,99853.03
2023-02-26T05:48:22.180Z,99852.19
2023-02-26T05:50:50.590Z,99846.84
2023-02-26T05:53:18.412Z,99833.53
2023-02-26T05:55:45.578Z,99846.16
2023-02-26T05:58:13.303Z,99842.50
2023-02-26T06:00:40.261Z,99836.72
2023-02-26T06:03:07.147Z,99836.72
2023-02-26T06:05:36.186Z,99839.25
2023-02-26T06:08:04.309Z,99834.78
2023-02-26T06:10:32.803Z,99841.81
2023-02-26T06:12:59.754Z,99844.50
2023-02-26T06:15:26.637Z,99840.59
2023-02-26T06:17:53.492Z,99842.56
2023-02-26T06:20:20.539Z,99847.88
2023-02-26T06:22:47.440Z,99842.81
2023-02-26T06:25:14.410Z,99847.16
2023-02-26T06:27:41.246Z,99841.13
2023-02-26T06:30:08.820Z,99844.50
2023-02-26T06:32:36.145Z,99857.34
2023-02-26T06:35:03.210Z,99854.81
2023-02-26T06:37:30.074Z,99846.69
2023-02-26T06:39:57.036Z,99857.59
2023-02-26T06:42:24.353Z,99855.91
2023-02-26T06:44:51.295Z,99853.25
2023-02-26T06:47:18.308Z,99853.50
2023-02-26T06:49:45.206Z,99855.31
2023-02-26T06:52:13.558Z,99861.97
2023-02-26T06:54:40.730Z,99864.63
2023-02-26T06:57:07.785Z,99858.44
2023-02-26T06:59:34.723Z,99857.34
2023-02-26T07:02:01.689Z,99867.13
2023-02-26T07:04:28.640Z,99866.28
2023-02-26T07:06:55.561Z,99866.81
2023-02-26T07:09:22.545Z,99869.31
2023-02-26T07:11:49.421Z,99868.47
2023-02-26T07:14:17.626Z,99869.31
2023-02-26T07:16:44.561Z,99870.56
2023-02-26T07:19:11.496Z,99877.84
2023-02-26T07:21:38.434Z,99879.66
2023-02-26T07:24:05.797Z,99869.84
2023-02-26T07:26:32.874Z,99876.13
2023-02-26T07:28:59.775Z,99888.31
2023-02-26T07:31:26.790Z,99873.22
2023-02-26T07:33:54.238Z,99872.25
2023-02-26T07:36:21.117Z,99875.50
2023-02-26T07:38:48.015Z,99882.50
2023-02-26T07:41:15.167Z,99884.22
2023-02-26T07:43:42.875Z,99877.34
2023-02-26T07:46:10.346Z,99876.38
2023-02-26T07:48:37.328Z,99877.22
2023-02-26T07:51:04.926Z,99879.66
2023-02-26T07:53:31.863Z,99883.00
2023-02-26T07:55:58.823Z,99883.63
2023-02-26T07:58:26.096Z,99880.81
2023-02-26T08:00:53.144Z,99888.56
2023-02-26T08:03:20.513Z,99891.22
2023-02-26T08:05:47.589Z,99894.84
2023-02-26T08:08:14.744Z,99901.88
2023-02-26T08:10:42.292Z,99898.22
2023-02-26T08:13:09.966Z,99905.63
2023-02-26T08:15:36.924Z,99903.81
2023-02-26T08:18:04.289Z,99906.72
2023-02-26T08:20:31.337Z,99902.97
2023-02-26T08:22:58.380Z,99904.53
2023-02-26T08:25:25.245Z,99893.16
2023-02-26T08:27:52.235Z,99909.00
2023-02-26T08:30:19.448Z,99898.22
2023-02-26T08:32:46.427Z,99898.00
2023-02-26T08:35:13.995Z,99902.09
2023-02-26T08:37:40.839Z,99897.50
2023-02-26T08:40:09.327Z,99895.03
2023-02-26T08:42:36.714Z,99890.56
2023-02-26T08:45:03.977Z,99892.13
2023-02-26T08:47:31.980Z,99886.28
2023-02-26T08:49:59.135Z,99884.09
2023-02-26T08:52:26.502Z,99882.41
2023-02-26T08:54:53.409Z,99882.41
2023-02-26T08:57:20.390Z,99886.50
2023-02-26T08:59:47.256Z,99893.56
2023-02-26T09:02:14.906Z,99885.31
2023-02-26T09:04:41.845Z,99886.50
2023-02-26T09:07:08.821Z,99886.50
2023-02-26T09:09:35.802Z,99887.53
2023-02-26T09:12:02.768Z,99891.13
2023-02-26T09:14:29.807Z,99888.53
2023-02-26T09:16:56.791Z,99892.38
2023-02-26T09:19:23.953Z,99893.88
2023-02-26T09:21:50.871Z,99890.53
2023-02-26T09:24:18.059Z,99887.28
2023-02-26T09:26:45.034Z,99899.84
2023-02-26T09:29:13.388Z,99900.88
2023-02-26T09:31:40.409Z,99903.34
2023-02-26T09:34:09.277Z,99899.75
2023-02-26T09:36:37.673Z,99888.72
2023-02-26T09:39:04.900Z,99889.06
2023-02-26T09:41:39.085Z,99885.44
2023-02-26T09:44:28.138Z,99889.13
2023-02-26T09:47:16.726Z,99884.06
2023-02-26T09:50:07.347Z,99882.91
2023-02-26T09:52:38.320Z,99882.03
2023-02-26T09:55:12.531Z,99877.84
2023-02-26T09:57:44.548Z,99869.41
2023-02-26T10:00:47.650Z,99871.63
2023-02-26T10:03:22.917Z,99865.19
2023-02-26T10:06:10.782Z,99874.47
2023-02-26T10:08:56.019Z,99867.72
2023-02-26T10:11:41.644Z,99868.03
2023-02-26T10:14:19.416Z,99867.56
2023-02-26T10:16:51.653Z,99857.91
2023-02-26T10:19:24.186Z,99855.66
2023-02-26T10:22:11.254Z,99848.47
2023-02-26T10:24:43.507Z,99840.63
2023-02-26T10:27:16.593Z,99838.94
2023-02-26T10:29:59.992Z,99834.72
2023-02-26T10:32:58.144Z,99834.66
2023-02-26T10:35:29.631Z,99830.94
2023-02-26T10:37:59.239Z,99825.91
2023-02-26T10:40:37.305Z,99827.88
2023-02-26T10:43:22.191Z,99826.56
2023-02-26T10:45:52.721Z,99823.44
2023-02-26T10:48:25.247Z,99816.88
2023-02-26T10:50:54.666Z,99825.97
2023-02-26T10:53:22.230Z,99824.28
2023-02-26T10:55:51.877Z,99823.25
2023-02-26T10:58:23.906Z,99815.69
2023-02-26T11:00:54.455Z,99818.16
2023-02-26T11:03:34.325Z,99810.47
2023-02-26T11:06:06.021Z,99802.31
2023-02-26T11:08:40.902Z,99809.31
2023-02-26T11:11:08.113Z,99816.00
2023-02-26T11:13:38.940Z,99821.41
2023-02-26T11:16:15.508Z,99807.94
2023-02-26T11:18:48.528Z,99815.81
2023-02-26T11:21:24.741Z,99809.72
2023-02-26T11:24:03.163Z,99805.38
2023-02-26T11:26:34.652Z,99808.50
2023-02-26T11:29:02.208Z,99807.88
2023-02-26T11:31:30.532Z,99817.81
2023-02-26T11:34:05.152Z,99807.41
2023-02-26T11:36:34.356Z,99807.13
2023-02-26T11:39:06.351Z,99806.38
2023-02-26T11:41:38.416Z,99796.88
2023-02-26T11:44:15.626Z,99797.50
2023-02-26T11:46:51.158Z,99792.88
2023-02-26T11:49:21.791Z,99789.44
2023-02-26T11:52:01.898Z,99788.13
2023-02-26T11:54:29.690Z,99776.91
2023-02-26T11:57:21.053Z,99776.66
2023-02-26T11:59:51.123Z,99771.59
2023-02-26T12:02:24.547Z,99768.91
2023-02-26T12:04:55.250Z,99767.47
2023-02-26T12:07:22.842Z,99775.50
2023-02-26T12:09:50.119Z,99769.75
2023-02-26T12:12:32.648Z,99775.84
2023-02-26T12:15:21.534Z,99776.50
2023-02-26T12:17:51.245Z,99766.56
2023-02-26T12:20:25.958Z,99760.09
2023-02-26T12:23:15.848Z,99755.00
2023-02-26T12:26:03.586Z,99751.53
2023-02-26T12:28:45.139Z,99749.78
2023-02-26T12:31:33.950Z,99745.47
2023-02-26T12:34:20.431Z,99737.56
2023-02-26T12:36:58.264Z,99727.41
2023-02-26T12:39:43.165Z,99725.75
2023-02-26T12:42:26.812Z,99713.91
2023-02-26T12:45:18.347Z,99712.06
2023-02-26T12:48:04.457Z,99702.13
2023-02-26T12:50:54.010Z,99709.63
2023-02-26T12:53:39.273Z,99700.44
2023-02-26T12:56:33.522Z,99692.75
2023-02-26T12:59:07.787Z,99681.63
2023-02-26T13:02:15.853Z,99686.69
2023-02-26T13:05:36.865Z,99687.31
2023-02-26T13:08:13.741Z,99686.41
2023-02-26T13:11:11.279Z,99677.03
2023-02-26T13:13:52.941Z,99677.72
2023-02-26T13:16:39.364Z,99679.47
2023-02-26T13:19:13.553Z,99677.81
2023-02-26T13:21:48.951Z,99677.44
2023-02-26T13:24:22.953Z,99677.56
2023-02-26T13:26:51.471Z,99672.84
2023-02-26T13:29:25.164Z,99673.34
2023-02-26T13:32:26.023Z,99681.78
2023-02-26T13:34:55.490Z,99683.13
2023-02-26T13:37:33.862Z,99679.09
2023-02-26T13:40:34.917Z,99686.75
2023-02-26T13:43:30.037Z,99677.88
2023-02-26T13:46:11.420Z,99690.28
2023-02-26T13:49:10.228Z,99687.88
2023-02-26T13:51:41.566Z,99685.75
2023-02-26T13:54:17.431Z,99688.00
2023-02-26T13:56:55.771Z,99689.75
2023-02-26T13:59:31.636Z,99703.84
2023-02-26T14:02:03.684Z,99696.03
2023-02-26T14:04:54.074Z,99695.44
2023-02-26T14:07:53.026Z,99706.97
2023-02-26T14:10:33.834Z,99712.69
2023-02-26T14:13:20.603Z,99725.72
2023-02-26T14:16:11.794Z,99723.50
2023-02-26T14:19:06.315Z,99714.50
2023-02-26T14:21:33.138Z,99714.75
2023-02-26T14:24:06.757Z,99728.28
2023-02-26T14:26:37.097Z,99729.13
2023-02-26T14:29:06.757Z,99732.19
2023-02-26T14:32:05.974Z,99745.81
2023-02-26T14:34:42.082Z,99735.72
2023-02-26T14:37:16.269Z,99733.59
2023-02-26T14:39:53.453Z,99731.38
2023-02-26T14:42:27.092Z,99730.53
2023-02-26T14:45:09.709Z,99736.97
2023-02-26T14:47:37.901Z,99738.56
2023-02-26T14:50:07.248Z,99743.47
2023-02-26T14:52:47.300Z,99752.16
2023-02-26T14:55:17.182Z,99757.22
2023-02-26T14:58:02.374Z,99763.41
2023-02-26T15:00:37.191Z,99758.66
2023-02-26T15:03:16.037Z,99749.78
2023-02-26T15:06:10.404Z,99759.34
2023-02-26T15:08:43.439Z,99760.31
2023-02-26T15:11:50.548Z,99764.28
2023-02-26T15:14:29.889Z,99769.19
2023-02-26T15:17:29.153Z,99780.00
2023-02-26T15:20:33.922Z,99765.78
2023-02-26T15:23:03.491Z,99766.22
2023-02-26T15:25:40.933Z,99762.56
2023-02-26T15:28:13.774Z,99766.66
2023-02-26T15:30:43.816Z,99763.84
2023-02-26T15:33:16.370Z,99772.28
2023-02-26T15:35:44.823Z,99781.38
2023-02-26T15:38:11.825Z,99770.84
2023-02-26T15:40:39.466Z,99779.41
2023-02-26T15:43:09.343Z,99777.97
2023-02-26T15:45:43.485Z,99776.88
2023-02-26T15:48:16.884Z,99782.19
2023-02-26T15:50:47.876Z,99781.34
2023-02-26T15:53:29.965Z,99800.09
2023-02-26T15:56:00.795Z,99798.09
2023-02-26T15:58:53.502Z,99793.22
2023-02-26T16:01:23.799Z,99783.56
2023-02-26T16:03:53.179Z,99794.06
2023-02-26T16:06:25.733Z,99796.41
2023-02-26T16:08:52.916Z,99801.69
2023-02-26T16:11:21.547Z,99799.19
2023-02-26T16:13:52.900Z,99798.81
2023-02-26T16:16:28.123Z,99799.78
2023-02-26T16:18:57.725Z,99801.97
2023-02-26T16:21:31.449Z,99798.47
2023-02-26T16:24:00.352Z,99802.28
2023-02-26T16:26:32.740Z,99823.78
2023-02-26T16:29:04.513Z,99816.59
2023-02-26T16:31:37.269Z,99834.19
2023-02-26T16:34:08.976Z,99827.50
2023-02-26T16:36:41.568Z,99835.41
2023-02-26T16:39:08.450Z,99842.34
2023-02-26T16:41:38.576Z,99837.47
2023-02-26T16:44:38.053Z,99844.47
2023-02-26T16:47:05.730Z,99854.50
2023-02-26T16:49:35.756Z,99850.66
2023-02-26T16:52:03.647Z,99853.44
2023-02-26T16:54:41.134Z,99857.88
2023-02-26T16:57:19.975Z,99848.31
2023-02-26T16:59:55.522Z,99854.63
2023-02-26T17:02:33.111Z,99861.84
2023-02-26T17:05:05.917Z,99860.53
2023-02-26T17:07:36.393Z,99863.69
2023-02-26T17:10:29.420Z,99865.56
2023-02-26T17:13:05.058Z,99872.25
2023-02-26T17:15:36.447Z,99882.75
2023-02-26T17:18:04.254Z,99883.97
2023-02-26T17:20:32.031Z,99888.34
2023-02-26T17:23:01.481Z,99884.94
2023-02-26T17:25:42.416Z,99889.56
2023-02-26T17:28:16.499Z,99890.28
2023-02-26T17:30:43.524Z,99891.97
2023-02-26T17:33:13.744Z,99891.97
2023-02-26T17:35:41.961Z,99903.53
2023-02-26T17:38:13.393Z,99904.31
2023-02-26T17:40:41.966Z,99918.88
2023-02-26T17:43:10.185Z,99910.84
2023-02-26T17:45:40.302Z,99921.06
2023-02-26T17:48:08.396Z,99924.41
2023-02-26T17:50:40.924Z,99925.94
2023-02-26T17:53:08.866Z,99937.22
2023-02-26T17:55:39.348Z,99923.00
2023-02-26T17:58:08.575Z,99927.78
2023-02-26T18:00:40.728Z,99921.72
2023-02-26T18:03:09.976Z,99926.47
2023-02-26T18:05:39.306Z,99938.97
2023-02-26T18:08:06.967Z,99942.88
2023-02-26T18:10:33.982Z,99953.31
2023-02-26T18:13:00.899Z,99957.78
2023-02-26T18:15:27.818Z,99962.56
2023-02-26T18:17:54.747Z,99959.78
2023-02-26T18:20:22.804Z,99960.84
2023-02-26T18:22:50.578Z,99957.09
2023-02-26T18:25:18.210Z,99971.88
2023-02-26T18:27:47.967Z,99979.19
2023-02-26T18:30:22.732Z,99983.78
2023-02-26T18:32:49.577Z,99989.63
2023-02-26T18:35:18.017Z,99993.75
2023-02-26T18:37:45.911Z,100001.41
2023-02-26T18:40:16.005Z,100001.03
2023-02-26T18:42:43.544Z,100013.13
2023-02-26T18:45:11.796Z,100004.19
2023-02-26T18:47:39.671Z,100008.66
2023-02-26T18:50:07.987Z,99987.47
2023-02-26T18:52:35.803Z,99998.66
2023-02-26T18:55:03.227Z,99990.91
2023-02-26T18:57:30.801Z,99991.63
2023-02-26T18:59:57.701Z,99992.25
2023-02-26T19:02:25.166Z,99980.03
2023-02-26T19:04:52.510Z,99981.97
2023-02-26T19:07:19.889Z,99988.16
2023-02-26T19:09:47.277Z,99964.19
2023-02-26T19:12:18.882Z,99989.72
2023-02-26T19:14:46.453Z,99996.97
2023-02-26T19:17:13.844Z,100009.06
2023-02-26T19:19:42.372Z,100022.97
2023-02-26T19:22:10.642Z,100047.53
2023-02-26T19:24:37.768Z,100056.47
2023-02-26T19:27:04.701Z,100065.66
2023-02-26T19:29:33.974Z,100074.38
2023-02-26T19:32:01.300Z,100075.47
2023-02-26T19:34:28.372Z,100073.19
2023-02-26T19:36:56.409Z,100082.59
2023-02-26T19:39:24.307Z,100085.47
2023-02-26T19:41:54.363Z,100096.13
2023-02-26T19:44:22.769Z,100094.41
2023-02-26T19:46:50.612Z,100104.53
2023-02-26T19:49:18.937Z,100112.50
2023-02-26T19:51:46.274Z,100116.97
2023-02-26T19:54:14.312Z,100115.69
2023-02-26T19:56:43.246Z,100109.25
2023-02-26T19:59:10.928Z,100115.19
2023-02-26T20:01:37.929Z,100120.44
2023-02-26T20:04:04.968Z,100118.94
2023-02-26T20:06:32.026Z,100118.28
2023-02-26T20:08:59.118Z,100125.97
2023-02-26T20:11:26.820Z,100132.38
2023-02-26T20:13:53.943Z,100128.97
2023-02-26T20:16:20.936Z,100132.56
2023-02-26T20:18:47.926Z,100130.06
2023-02-26T20:21:15.422Z,100134.53
2023-02-26T20:23:43.323Z,100140.28
2023-02-26T20:26:15.563Z,100141.16
2023-02-26T20:28:43.530Z,100127.25
2023-02-26T20:31:11.390Z,100123.31
2023-02-26T20:33:39.825Z,100124.06
2023-02-26T20:36:10.483Z,100127.38
2023-02-26T20:38:38.557Z,100128.41
2023-02-26T20:41:05.893Z,100134.88
2023-02-26T20:43:33.472Z,100137.13
2023-02-26T20:46:00.557Z,100133.94
2023-02-26T20:48:27.566Z,100137.44
2023-02-26T20:51:00.392Z,100137.53
2023-02-26T20:53:28.060Z,100149.66
2023-02-26T20:55:57.257Z,100150.06
2023-02-26T20:58:26.198Z,100142.03
2023-02-26T21:00:58.053Z,100148.69
2023-02-26T21:03:26.235Z,100154.75
2023-02-26T21:05:54.417Z,100158.78
2023-02-26T21:08:24.258Z,100162.91
2023-02-26T21:10:52.379Z,100164.72
2023-02-26T21:13:20.028Z,100164.28
2023-02-26T21:15:50.995Z,100168.50
2023-02-26T21:18:18.343Z,100173.72
2023-02-26T21:20:45.337Z,100173.50
2023-02-26T21:23:12.444Z,100179.56
2023-02-26T21:25:40.185Z,100176.81
2023-02-26T21:28:07.569Z,100166.41
2023-02-26T21:30:36.282Z,100166.94
2023-02-26T21:33:03.696Z,100177.03
2023-02-26T21:35:32.109Z,100183.16
2023-02-26T21:38:00.569Z,100187.38
2023-02-26T21:40:28.346Z,100184.97
2023-02-26T21:42:55.326Z,100197.19
2023-02-26T21:45:22.241Z,100197.25
2023-02-26T21:47:49.238Z,100193.53
2023-02-26T21:50:16.304Z,100188.16
2023-02-26T21:52:44.055Z,100182.19
2023-02-26T21:55:11.694Z,100170.84
2023-02-26T21:57:38.942Z,100163.50
2023-02-26T22:00:10.288Z,100165.09
2023-02-26T22:02:40.449Z,100163.56
2023-02-26T22:05:07.655Z,100170.75
2023-02-26T22:07:34.776Z,100178.91
2023-02-26T22:10:01.776Z,100185.31
2023-02-26T22:12:28.662Z,100166.50
2023-02-26T22:14:55.991Z,100173.50
2023-02-26T22:17:23.626Z,100187.88
2023-02-26T22:19:51.743Z,100192.44
2023-02-26T22:22:19.021Z,100194.31
2023-02-26T22:24:46.003Z,100200.34
2023-02-26T22:27:13.039Z,100192.84
2023-02-26T22:29:40.119Z,100202.44
2023-02-26T22:32:07.346Z,100209.25
2023-02-26T22:34:34.556Z,100209.03
2023-02-26T22:37:01.809Z,100222.53
2023-02-26T22:39:28.852Z,100223.03
2023-02-26T22:41:55.767Z,100221.28
2023-02-26T22:44:22.745Z,100225.81
2023-02-26T22:46:50.136Z,100225.31
2023-02-26T22:49:18.163Z,100231.25
2023-02-26T22:51:46.002Z,100230.66
2023-02-26T22:54:13.097Z,100240.88
2023-02-26T22:56:40.059Z,100246.56
2023-02-26T22:59:06.948Z,100246.25
2023-02-26T23:01:33.976Z,100254.63
2023-02-26T23:04:01.012Z,100263.53
2023-02-26T23:06:27.985Z,100268.81
2023-02-26T23:08:54.866Z,100272.38
2023-02-26T23:11:21.839Z,100263.72
2023-02-26T23:13:48.772Z,100279.84
2023-02-26T23:16:16.002Z,100276.72
2023-02-26T23:18:45.621Z,100271.44
2023-02-26T23:21:12.650Z,100288.81
2023-02-26T23:23:39.874Z,100281.22
2023-02-26T23:26:07.611Z,100273.63
2023-02-26T23:28:35.200Z,100272.44
2023-02-26T23:31:02.541Z,100266.31
2023-02-26T23:33:29.443Z,100270.19
2023-02-26T23:35:56.925Z,100265.91
2023-02-26T23:38:23.976Z,100279.44
2023-02-26T23:40:51.053Z,100278.28
2023-02-26T23:43:18.162Z,100286.06
2023-02-26T23:45:45.135Z,100287.06
2023-02-26T23:48:12.030Z,100293.50
2023-02-26T23:50:39.013Z,100306.88
2023-02-26T23:53:06.194Z,100308.59
2023-02-26T23:55:33.179Z,100312.56
2023-02-26T23:58:00.149Z,100316.19
